Time;durP1;ratioP1;P1;durP2;ratioP2;P2;SDS_P1;SDS_P2;PMS_P1;PMS_P2;Temp;Humidity;BMP_temperature;BMP_pressure;BME280_temperature;BME280_humidity;BME280_pressure;Samples;Min_cycle;Max_cycle;Signal;HPM_P1;HPM_P2
2022/03/02 00:00:44;;;;;;;496.25;238.77;;;;;;;-1.57;52.62;101394.88;5032537;28;20513;-69
2022/03/02 00:03:11;;;;;;;321.60;165.75;;;;;;;-1.54;52.99;101400.06;5045178;28;20072;-67
2022/03/02 00:05:38;;;;;;;258.25;127.90;;;;;;;-1.46;52.92;101394.84;5036346;28;20053;-68
2022/03/02 00:08:05;;;;;;;251.43;116.95;;;;;;;-1.45;52.64;101393.97;5045201;28;20513;-73
2022/03/02 00:10:34;;;;;;;311.90;132.50;;;;;;;-1.47;52.56;101390.53;5042160;28;20139;-69
2022/03/02 00:13:01;;;;;;;324.20;150.20;;;;;;;-1.55;52.55;101396.63;5044260;28;20072;-70
2022/03/02 00:15:28;;;;;;;318.63;155.85;;;;;;;-1.60;52.67;101397.50;5037245;28;20051;-72
2022/03/02 00:17:56;;;;;;;304.23;145.00;;;;;;;-1.59;52.56;101391.44;5034000;28;20067;-77
2022/03/02 00:20:23;;;;;;;261.15;119.85;;;;;;;-1.61;52.75;101381.06;5044348;28;20049;-68
2022/03/02 00:22:52;;;;;;;251.65;112.85;;;;;;;-1.62;52.41;101386.25;5044998;28;20037;-76
2022/03/02 00:25:19;;;;;;;253.00;110.65;;;;;;;-1.65;52.44;101386.28;5045009;28;20045;-70
2022/03/02 00:27:51;;;;;;;258.15;118.28;;;;;;;-1.66;52.35;101382.81;5045351;28;20125;-74
2022/03/02 00:30:22;;;;;;;264.15;116.93;;;;;;;-1.68;52.28;101386.28;5049325;28;20100;-68
2022/03/02 00:32:50;;;;;;;287.33;126.15;;;;;;;-1.71;52.66;101381.13;5036855;28;20069;-69
2022/03/02 00:35:18;;;;;;;268.77;122.25;;;;;;;-1.75;52.53;101375.97;5038216;28;20049;-72
2022/03/02 00:37:45;;;;;;;248.48;122.10;;;;;;;-1.71;52.68;101384.59;5040240;28;20128;-70
2022/03/02 00:40:12;;;;;;;270.88;143.07;;;;;;;-1.62;53.98;101376.78;5042027;28;20520;-75
2022/03/02 00:42:39;;;;;;;268.58;136.07;;;;;;;-1.51;53.99;101373.25;5051286;28;20041;-74
2022/03/02 00:45:07;;;;;;;239.68;123.95;;;;;;;-1.42;54.00;101370.66;5036048;28;20051;-69
2022/03/02 00:47:34;;;;;;;241.40;111.72;;;;;;;-1.37;53.77;101369.75;5046557;28;20288;-70
2022/03/02 00:50:02;;;;;;;305.73;146.65;;;;;;;-1.31;53.63;101373.19;5037078;28;20041;-68
2022/03/02 00:52:29;;;;;;;262.92;129.00;;;;;;;-1.30;53.49;101372.31;5031599;28;20116;-81
2022/03/02 00:54:57;;;;;;;207.23;103.72;;;;;;;-1.30;53.79;101367.13;5037834;28;20042;-67
2022/03/02 00:57:24;;;;;;;159.88;80.72;;;;;;;-1.26;53.64;101374.88;5046709;28;20041;-69
2022/03/02 00:59:50;;;;;;;232.93;105.20;;;;;;;-1.27;53.22;101361.91;5050687;28;20534;-69
2022/03/02 01:02:19;;;;;;;267.90;112.63;;;;;;;-1.30;53.21;101360.19;5039381;28;20084;-69
2022/03/02 01:04:46;;;;;;;255.75;121.20;;;;;;;-1.37;53.20;101356.78;5050657;28;20056;-74
2022/03/02 01:07:13;;;;;;;251.35;110.75;;;;;;;-1.46;52.79;101356.84;5049947;28;20109;-70
2022/03/02 01:09:40;;;;;;;255.65;115.78;;;;;;;-1.50;52.97;101354.25;5040772;28;20561;-70
2022/03/02 01:12:07;;;;;;;245.75;109.25;;;;;;;-1.55;52.84;101346.50;5047923;28;20082;-72
2022/03/02 01:14:34;;;;;;;245.27;106.93;;;;;;;-1.58;52.82;101352.56;5034823;28;20282;-71
2022/03/02 01:17:02;;;;;;;242.88;107.55;;;;;;;-1.60;52.75;101345.69;5038493;28;20124;-68
2022/03/02 01:19:30;;;;;;;224.07;105.95;;;;;;;-1.62;52.58;101350.00;5045477;28;20041;-70
2022/03/02 01:21:57;;;;;;;186.02;93.55;;;;;;;-1.66;52.83;101340.53;5046326;28;20045;-70
2022/03/02 01:24:25;;;;;;;171.80;82.68;;;;;;;-1.71;52.62;101345.75;5047812;28;20051;-70
2022/03/02 01:26:52;;;;;;;224.77;95.82;;;;;;;-1.74;52.66;101341.41;5047325;28;20475;-73
2022/03/02 01:29:19;;;;;;;197.00;91.45;;;;;;;-1.77;52.64;101340.56;5049656;28;20053;-71
2022/03/02 01:31:46;;;;;;;207.25;94.32;;;;;;;-1.81;52.68;101333.69;5050833;28;20412;-69
2022/03/02 01:34:13;;;;;;;230.85;99.70;;;;;;;-1.86;52.62;101325.06;5051455;28;20052;-80
2022/03/02 01:36:41;;;;;;;223.50;101.07;;;;;;;-1.92;52.63;101331.13;5050498;28;20086;-68
2022/03/02 01:39:08;;;;;;;220.60;96.03;;;;;;;-1.98;52.69;101324.25;5050130;28;20049;-69
2022/03/02 01:41:35;;;;;;;227.88;91.38;;;;;;;-1.99;52.59;101324.25;5049593;28;20083;-74
2022/03/02 01:44:02;;;;;;;217.35;99.95;;;;;;;-1.99;52.53;101324.25;5048826;28;20136;-68
2022/03/02 01:46:30;;;;;;;208.63;88.13;;;;;;;-1.99;52.45;101324.25;5047836;28;20048;-69
2022/03/02 01:48:57;;;;;;;213.82;90.88;;;;;;;-2.05;52.69;101306.13;5051104;28;20554;-69
2022/03/02 01:51:24;;;;;;;224.02;93.75;;;;;;;-2.09;52.55;101313.06;5049250;28;20063;-72
2022/03/02 01:53:53;;;;;;;225.18;95.70;;;;;;;-2.11;52.68;101314.78;5049963;28;20067;-69
2022/03/02 01:56:20;;;;;;;237.85;100.55;;;;;;;-2.18;52.77;101308.78;5050731;28;20065;-68
2022/03/02 01:58:48;;;;;;;237.88;102.30;;;;;;;-2.22;52.90;101301.88;5048804;28;20143;-68
2022/03/02 02:01:15;;;;;;;257.67;109.55;;;;;;;-2.23;52.79;101304.47;5049909;28;20059;-70
2022/03/02 02:03:43;;;;;;;270.60;118.53;;;;;;;-2.25;52.67;101299.31;5055207;28;20112;-69
2022/03/02 02:06:11;;;;;;;262.52;109.18;;;;;;;-2.25;52.86;101299.31;5052460;28;20048;-68
2022/03/02 02:08:38;;;;;;;277.05;119.47;;;;;;;-2.27;52.73;101302.75;5050317;28;20045;-69
2022/03/02 02:11:06;;;;;;;263.58;116.28;;;;;;;-2.30;52.79;101298.47;5050604;28;20053;-69
2022/03/02 02:13:34;;;;;;;242.55;110.07;;;;;;;-2.33;52.90;101293.28;5049108;28;20048;-69
2022/03/02 02:16:02;;;;;;;263.20;111.75;;;;;;;-2.35;52.94;101290.72;5047334;28;20055;-71
2022/03/02 02:18:30;;;;;;;233.15;105.53;;;;;;;-2.37;53.11;101292.44;5048522;28;20498;-72
2022/03/02 02:21:01;;;;;;;259.00;111.60;;;;;;;-2.39;53.13;101289.00;5050015;28;20526;-69
2022/03/02 02:23:28;;;;;;;252.10;109.88;;;;;;;-2.40;53.17;101289.00;5048802;28;20801;-68
2022/03/02 02:25:55;;;;;;;234.27;107.60;;;;;;;-2.40;53.09;101286.41;5050257;28;20132;-68
2022/03/02 02:28:25;;;;;;;252.45;112.30;;;;;;;-2.40;53.03;101283.81;5052580;28;20049;-69
2022/03/02 02:30:54;;;;;;;246.98;107.70;;;;;;;-2.41;52.89;101280.38;5053321;28;20049;-70
2022/03/02 02:33:22;;;;;;;272.25;111.95;;;;;;;-2.43;52.99;101276.94;5055232;28;20112;-71
2022/03/02 02:35:49;;;;;;;246.13;111.22;;;;;;;-2.42;53.16;101280.38;5055919;28;20252;-71
2022/03/02 02:38:20;;;;;;;233.25;110.60;;;;;;;-2.42;53.00;101282.97;5053209;28;20119;-70
2022/03/02 02:40:47;;;;;;;216.10;101.82;;;;;;;-2.43;53.13;101282.13;5052070;28;20448;-75
2022/03/02 02:43:16;;;;;;;237.55;110.43;;;;;;;-2.43;53.37;101273.47;5050921;28;20148;-70
2022/03/02 02:45:44;;;;;;;234.10;100.38;;;;;;;-2.43;52.99;101271.78;5052034;28;20133;-75
2022/03/02 02:48:11;;;;;;;262.60;109.18;;;;;;;-2.43;53.06;101261.44;5053483;28;20057;-73
2022/03/02 02:50:38;;;;;;;219.15;95.15;;;;;;;-2.44;53.12;101264.00;5054865;28;20051;-76
2022/03/02 02:53:07;;;;;;;231.18;95.85;;;;;;;-2.50;52.92;101264.91;5053159;28;20056;-77
2022/03/02 02:55:36;;;;;;;240.20;100.47;;;;;;;-2.53;53.02;101264.88;5051341;28;20053;-74
2022/03/02 02:58:04;;;;;;;245.63;107.63;;;;;;;-2.59;52.89;101268.34;5050448;28;20052;-70
2022/03/02 03:00:34;;;;;;;236.40;100.50;;;;;;;-2.64;53.10;101259.75;5053909;28;20380;-72
2022/03/02 03:03:02;;;;;;;244.48;111.25;;;;;;;-2.69;53.33;101259.72;5053085;28;20049;-69
2022/03/02 03:05:32;;;;;;;256.23;106.63;;;;;;;-2.69;53.18;101258.88;5054460;28;20093;-69
2022/03/02 03:08:01;;;;;;;249.30;112.65;;;;;;;-2.69;53.23;101264.06;5053744;28;20496;-69
2022/03/02 03:10:28;;;;;;;245.35;104.95;;;;;;;-2.71;53.56;101264.06;5057032;28;20806;-77
2022/03/02 03:12:57;;;;;;;238.07;102.63;;;;;;;-2.69;53.30;101266.63;5056820;28;20045;-70
2022/03/02 03:15:25;;;;;;;220.73;101.10;;;;;;;-2.71;53.15;101265.78;5055532;28;20123;-69
2022/03/02 03:17:52;;;;;;;232.50;103.72;;;;;;;-2.77;53.22;101255.47;5056713;28;20160;-76
2022/03/02 03:20:22;;;;;;;245.00;99.50;;;;;;;-2.77;53.39;101268.41;5056459;28;20117;-73
2022/03/02 03:22:49;;;;;;;224.25;98.57;;;;;;;-2.80;53.30;101256.31;5056157;28;20128;-69
2022/03/02 03:25:17;;;;;;;221.98;98.53;;;;;;;-2.81;53.16;101258.91;5057144;28;20112;-69
2022/03/02 03:27:45;;;;;;;226.20;100.65;;;;;;;-2.84;53.16;101253.75;5057248;28;20087;-68
2022/03/02 03:30:16;;;;;;;230.50;98.53;;;;;;;-2.83;53.21;101252.88;5058396;28;20105;-77
2022/03/02 03:32:44;;;;;;;215.75;87.75;;;;;;;-2.84;53.08;101244.25;5055752;28;20087;-67
2022/03/02 03:35:13;;;;;;;204.95;95.15;;;;;;;-2.86;53.27;101247.69;5055590;28;20087;-72
2022/03/02 03:37:41;;;;;;;206.52;93.93;;;;;;;-2.90;53.16;101239.97;5068892;28;20125;-70
2022/03/02 03:40:10;;;;;;;191.82;89.75;;;;;;;-2.90;53.44;101242.56;5056232;28;20044;-72
2022/03/02 03:42:37;;;;;;;197.85;82.03;;;;;;;-2.90;53.29;101244.25;5057698;28;20088;-69
2022/03/02 03:45:05;;;;;;;181.02;80.50;;;;;;;-2.88;53.32;101242.56;5055463;28;20045;-68
2022/03/02 03:47:34;;;;;;;187.02;86.28;;;;;;;-2.87;53.41;101244.25;5056832;28;20105;-68
2022/03/02 03:50:02;;;;;;;183.40;85.10;;;;;;;-2.89;53.26;101244.25;5058079;28;20053;-68
2022/03/02 03:52:29;;;;;;;223.02;99.38;;;;;;;-2.94;53.28;101237.38;5055781;28;20049;-68
2022/03/02 03:54:56;;;;;;;192.50;84.13;;;;;;;-2.96;53.48;101239.94;5058102;28;20083;-71
2022/03/02 03:57:23;;;;;;;161.50;76.05;;;;;;;-2.95;53.36;101233.09;5057438;28;20104;-74
2022/03/02 03:59:50;;;;;;;164.55;73.68;;;;;;;-2.94;53.60;101234.78;5058912;28;20094;-69
2022/03/02 04:02:17;;;;;;;166.38;72.35;;;;;;;-2.93;53.54;101233.94;5058180;28;20493;-68
2022/03/02 04:04:47;;;;;;;142.30;68.28;;;;;;;-2.93;53.63;101229.63;5059738;28;20067;-68
2022/03/02 04:07:14;;;;;;;157.38;70.70;;;;;;;-2.93;53.43;101229.63;5059945;28;20069;-69
2022/03/02 04:09:41;;;;;;;173.75;77.35;;;;;;;-2.93;53.46;101231.34;5058391;28;20102;-73
2022/03/02 04:12:09;;;;;;;149.13;68.32;;;;;;;-2.94;53.52;101227.88;5055507;28;20044;-69
2022/03/02 04:14:36;;;;;;;157.93;73.22;;;;;;;-2.93;53.56;101229.63;5053855;28;20669;-72
2022/03/02 04:17:04;;;;;;;166.40;78.88;;;;;;;-2.93;53.68;101227.03;5056243;28;20495;-68
2022/03/02 04:19:31;;;;;;;174.48;75.70;;;;;;;-2.96;53.80;101227.03;5057295;28;20064;-70
2022/03/02 04:22:00;;;;;;;148.10;78.68;;;;;;;-2.95;53.71;101220.16;5057443;28;20131;-74
2022/03/02 04:24:27;;;;;;;158.38;73.75;;;;;;;-2.97;53.95;101217.56;5058746;28;20101;-80
2022/03/02 04:26:54;;;;;;;180.45;76.82;;;;;;;-2.96;53.74;101221.84;5056191;28;20049;-69
2022/03/02 04:29:21;;;;;;;159.50;71.10;;;;;;;-2.95;53.94;101218.44;5056680;28;20150;-70
2022/03/02 04:31:48;;;;;;;155.43;64.43;;;;;;;-2.93;53.73;101215.84;5057818;28;20097;-71
2022/03/02 04:34:14;;;;;;;154.98;67.50;;;;;;;-2.93;53.90;101208.09;5057615;28;20059;-68
2022/03/02 04:36:42;;;;;;;151.68;72.22;;;;;;;-2.92;53.80;101215.84;5057103;28;20045;-73
2022/03/02 04:39:10;;;;;;;141.50;66.13;;;;;;;-2.89;53.96;101214.97;5056894;28;20073;-70
2022/03/02 04:41:37;;;;;;;140.95;70.30;;;;;;;-2.89;53.90;101209.78;5055428;28;20092;-69
2022/03/02 04:44:04;;;;;;;156.27;68.93;;;;;;;-2.89;53.70;101205.47;5053713;28;20084;-70
2022/03/02 04:46:32;;;;;;;135.55;66.07;;;;;;;-2.90;53.88;101208.94;5057868;28;20037;-69
2022/03/02 04:49:10;;;;;;;132.77;62.25;;;;;;;-2.91;54.02;101207.22;5056040;28;20052;-70
2022/03/02 04:51:37;;;;;;;148.45;65.82;;;;;;;-2.93;54.02;101208.09;5056391;28;20166;-75
2022/03/02 04:54:05;;;;;;;156.45;67.68;;;;;;;-2.97;53.94;101206.34;5056067;28;20492;-69
2022/03/02 04:56:34;;;;;;;153.18;66.97;;;;;;;-3.02;53.88;101201.19;5054750;28;20056;-71
2022/03/02 04:59:03;;;;;;;161.05;70.55;;;;;;;-3.05;54.01;101196.03;5053314;28;20129;-72
2022/03/02 05:01:30;;;;;;;135.90;65.68;;;;;;;-3.07;54.33;101203.78;5052302;28;20045;-71
2022/03/02 05:03:57;;;;;;;156.80;75.38;;;;;;;-3.08;54.09;101207.25;5052334;28;20079;-71
2022/03/02 05:06:24;;;;;;;148.07;66.72;;;;;;;-3.06;54.14;101196.91;5053152;28;20083;-68
2022/03/02 05:08:51;;;;;;;136.25;56.28;;;;;;;-3.08;53.96;101201.19;5053698;28;20108;-71
2022/03/02 05:11:18;;;;;;;145.10;67.20;;;;;;;-3.11;53.82;101198.63;5054809;28;20056;-73
2022/03/02 05:13:47;;;;;;;150.10;70.70;;;;;;;-3.13;54.06;101206.38;5050517;28;20063;-67
2022/03/02 05:16:14;;;;;;;156.88;75.20;;;;;;;-3.15;53.92;101200.34;5047612;28;20624;-69
2022/03/02 05:18:44;;;;;;;161.27;72.07;;;;;;;-3.15;53.94;101192.59;5048821;28;20135;-70
2022/03/02 05:21:12;;;;;;;165.35;77.00;;;;;;;-3.16;53.97;101195.19;5050213;28;20124;-69
2022/03/02 05:23:39;;;;;;;143.20;72.82;;;;;;;-3.19;54.05;101190.00;5047249;28;20053;-69
2022/03/02 05:26:06;;;;;;;154.45;76.00;;;;;;;-3.14;54.19;101188.28;5052548;28;20124;-68
2022/03/02 05:28:34;;;;;;;160.77;75.50;;;;;;;-3.14;54.10;101193.47;5054131;28;20047;-69
2022/03/02 05:31:02;;;;;;;148.20;73.45;;;;;;;-3.21;54.44;101187.44;5050025;28;20135;-68
2022/03/02 05:33:29;;;;;;;150.10;73.20;;;;;;;-3.20;54.34;101183.13;5038512;28;20041;-68
2022/03/02 05:35:56;;;;;;;156.45;73.28;;;;;;;-3.24;54.70;101186.56;5052815;28;20532;-71
2022/03/02 05:38:23;;;;;;;150.10;77.15;;;;;;;-3.15;54.46;101181.38;5055093;28;20120;-70
2022/03/02 05:40:50;;;;;;;160.88;77.80;;;;;;;-3.11;54.25;101189.16;5056450;28;20077;-69
2022/03/02 05:43:17;;;;;;;157.15;80.28;;;;;;;-3.02;54.49;101193.44;5055219;28;20064;-73
2022/03/02 05:45:44;;;;;;;154.75;77.35;;;;;;;-2.97;53.93;101194.31;5057452;28;20083;-71
2022/03/02 05:48:13;;;;;;;177.75;82.35;;;;;;;-2.92;54.31;101190.00;5058387;28;20124;-70
2022/03/02 05:50:40;;;;;;;189.93;90.45;;;;;;;-2.86;54.03;101193.41;5058386;28;20090;-70
2022/03/02 05:53:07;;;;;;;213.93;94.30;;;;;;;-2.84;54.15;101186.53;5056495;28;20090;-71
2022/03/02 05:55:34;;;;;;;219.85;98.70;;;;;;;-2.78;54.13;101192.53;5056077;28;20187;-71
2022/03/02 05:58:01;;;;;;;218.20;102.60;;;;;;;-2.71;54.04;101190.78;5049222;28;20780;-68
2022/03/02 06:00:28;;;;;;;193.07;92.80;;;;;;;-2.70;54.29;101190.78;5042730;28;20049;-68
2022/03/02 06:02:55;;;;;;;181.63;91.65;;;;;;;-2.64;54.43;101184.75;5046524;28;20144;-73
2022/03/02 06:05:23;;;;;;;186.70;92.07;;;;;;;-2.56;54.37;101180.38;5045723;28;20076;-74
2022/03/02 06:07:50;;;;;;;177.07;81.88;;;;;;;-2.47;54.19;101186.41;5046403;28;20096;-70
2022/03/02 06:10:18;;;;;;;170.07;82.15;;;;;;;-2.38;54.02;101183.78;5047528;28;20045;-69
2022/03/02 06:12:46;;;;;;;188.85;96.28;;;;;;;-2.31;54.16;101175.97;5050260;28;20549;-72
2022/03/02 06:15:14;;;;;;;189.38;96.40;;;;;;;-2.27;54.46;101183.72;5050277;28;20655;-70
2022/03/02 06:17:42;;;;;;;176.55;96.07;;;;;;;-2.22;54.51;101184.56;5050769;28;20455;-68
2022/03/02 06:20:11;;;;;;;192.57;99.72;;;;;;;-2.22;55.17;101181.97;5050284;28;20049;-70
2022/03/02 06:22:40;;;;;;;205.38;103.10;;;;;;;-2.09;55.17;101182.78;5046663;28;20049;-70
2022/03/02 06:25:08;;;;;;;179.07;96.05;;;;;;;-1.99;55.73;101189.63;5050234;28;20057;-69
2022/03/02 06:27:36;;;;;;;274.30;134.90;;;;;;;-1.95;55.91;101175.78;5051129;28;20051;-81
2022/03/02 06:30:04;;;;;;;527.42;266.40;;;;;;;-1.85;56.24;101180.06;5047761;28;20106;-75
2022/03/02 06:32:31;;;;;;;379.30;184.90;;;;;;;-1.78;56.31;101179.16;5051104;28;20136;-69
2022/03/02 06:34:59;;;;;;;249.38;130.63;;;;;;;-1.70;56.41;101181.69;5048425;28;20045;-68
2022/03/02 06:37:26;;;;;;;281.08;136.75;;;;;;;-1.58;56.72;101181.59;5049329;28;20059;-73
2022/03/02 06:39:58;;;;;;;303.58;143.35;;;;;;;-1.47;56.67;101178.91;5049941;28;20106;-67
2022/03/02 06:42:30;;;;;;;266.10;129.25;;;;;;;-1.30;56.46;101172.72;5046519;28;20640;-70
2022/03/02 06:45:00;;;;;;;293.98;157.77;;;;;;;-1.23;56.34;101176.97;5047691;28;20707;-71
2022/03/02 06:47:30;;;;;;;356.63;180.05;;;;;;;-1.11;56.34;101176.88;5046167;28;20124;-69
2022/03/02 06:50:06;;;;;;;330.05;162.30;;;;;;;-0.93;56.48;101175.00;5046579;28;20052;-67
2022/03/02 06:52:34;;;;;;;;;;;;;;;-0.62;55.79;101171.16;5028540;28;20056;-67
2022/03/02 06:55:06;;;;;;;260.25;126.10;;;;;;;-0.62;55.52;101171.16;5026728;28;19921;-76
2022/03/02 06:57:33;;;;;;;275.77;136.88;;;;;;;-0.52;55.38;101173.66;5026246;28;20739;-70
2022/03/02 07:00:04;;;;;;;231.77;111.03;;;;;;;-0.41;55.72;101175.25;5026347;28;20120;-69
2022/03/02 07:02:40;;;;;;;208.52;102.88;;;;;;;-0.27;55.56;101164.69;5025384;28;20052;-73
2022/03/02 07:05:09;;;;;;;195.20;99.70;;;;;;;-0.13;55.50;101159.31;5025497;28;20053;-72
2022/03/02 07:07:37;;;;;;;206.35;106.18;;;;;;;-0.02;55.46;101157.44;5026155;28;20054;-71
2022/03/02 07:10:08;;;;;;;204.43;104.78;;;;;;;0.12;55.16;101158.97;5027517;28;20051;-73
2022/03/02 07:12:36;;;;;;;205.10;97.43;;;;;;;0.18;55.14;101158.84;5027716;28;20124;-68
2022/03/02 07:15:04;;;;;;;194.48;99.88;;;;;;;0.33;55.03;101157.78;5026786;28;20129;-76
2022/03/02 07:17:32;;;;;;;198.13;102.97;;;;;;;0.48;54.63;101162.72;5028018;28;20125;-71
2022/03/02 07:19:59;;;;;;;185.98;93.22;;;;;;;0.56;54.79;101152.22;5028632;28;20045;-72
2022/03/02 07:22:32;;;;;;;183.52;94.35;;;;;;;0.69;54.75;101150.28;5029045;28;20048;-66
2022/03/02 07:25:04;;;;;;;169.32;85.90;;;;;;;0.86;54.19;101153.41;5029032;28;20124;-74
2022/03/02 07:27:33;;;;;;;165.48;79.22;;;;;;;1.02;54.00;101158.34;5027621;28;20065;-73
2022/03/02 07:30:02;;;;;;;208.15;97.07;;;;;;;1.09;53.70;101149.53;5029221;28;20077;-71
2022/03/02 07:32:33;;;;;;;198.23;92.25;;;;;;;1.27;53.52;101145.72;5028794;28;20056;-73
2022/03/02 07:35:03;;;;;;;178.57;87.78;;;;;;;1.39;53.51;101144.63;5028520;28;20107;-73
2022/03/02 07:37:30;;;;;;;158.48;80.90;;;;;;;1.52;53.35;101136.53;5028272;28;20688;-70
2022/03/02 07:39:58;;;;;;;142.07;69.53;;;;;;;1.66;53.19;101141.47;5030116;28;20076;-71
2022/03/02 07:42:25;;;;;;;115.22;56.38;;;;;;;1.83;52.34;101142.84;5031431;28;20635;-73
2022/03/02 07:44:55;;;;;;;84.05;48.25;;;;;;;1.96;51.78;101130.38;5030946;28;20085;-70
2022/03/02 07:47:22;;;;;;;82.13;40.15;;;;;;;2.05;50.26;101138.88;5035429;28;20125;-68
2022/03/02 07:49:50;;;;;;;67.47;38.40;;;;;;;2.16;49.73;101129.94;5033970;28;20049;-67
2022/03/02 07:52:18;;;;;;;77.30;42.35;;;;;;;2.17;49.01;101127.28;5032791;28;20045;-68
2022/03/02 07:54:46;;;;;;;77.80;42.90;;;;;;;2.39;48.79;101131.97;5032174;28;20069;-71
2022/03/02 07:57:15;;;;;;;70.55;33.58;;;;;;;2.57;48.84;101128.06;5029170;28;20076;-69
2022/03/02 07:59:45;;;;;;;52.40;29.23;;;;;;;2.73;48.96;101116.34;5029447;28;20057;-69
2022/03/02 08:02:15;;;;;;;59.05;30.77;;;;;;;2.97;48.50;101113.97;5036491;28;20100;-68
2022/03/02 08:04:42;;;;;;;53.15;31.30;;;;;;;3.12;48.53;101108.34;5035847;28;20081;-72
2022/03/02 08:07:11;;;;;;;48.47;27.27;;;;;;;3.31;48.48;101107.81;5037245;28;20068;-72
2022/03/02 08:09:38;;;;;;;54.38;31.27;;;;;;;3.39;48.05;101109.31;5038383;28;20050;-69
2022/03/02 08:12:07;;;;;;;57.10;31.08;;;;;;;3.50;48.01;101106.38;5035662;28;20057;-72
2022/03/02 08:14:35;;;;;;;35.85;19.63;;;;;;;3.60;47.96;101100.00;5035033;28;20049;-70
2022/03/02 08:17:02;;;;;;;36.55;18.52;;;;;;;3.75;47.97;101103.91;5031649;28;20073;-69
2022/03/02 08:19:31;;;;;;;43.92;21.58;;;;;;;3.91;47.83;101106.91;5029028;28;20046;-73
2022/03/02 08:22:02;;;;;;;40.70;23.40;;;;;;;4.02;47.46;101103.94;5028603;28;20064;-69
2022/03/02 08:24:31;;;;;;;42.33;21.45;;;;;;;4.16;47.28;101095.66;5028117;28;20041;-69
2022/03/02 08:27:01;;;;;;;41.38;22.17;;;;;;;4.29;47.02;101102.22;5025946;28;20056;-68
2022/03/02 08:29:31;;;;;;;41.63;22.48;;;;;;;4.39;46.75;101107.97;5028750;28;20060;-73
2022/03/02 08:32:00;;;;;;;45.08;22.27;;;;;;;4.50;46.67;101098.03;5027488;28;20057;-71
2022/03/02 08:34:27;;;;;;;46.65;26.48;;;;;;;4.67;46.59;101100.06;5025953;28;20053;-70
2022/03/02 08:36:57;;;;;;;47.30;24.00;;;;;;;4.82;46.32;101097.81;5025418;28;20378;-69
2022/03/02 08:39:25;;;;;;;56.50;34.50;;;;;;;4.71;44.55;101095.56;5024208;28;20049;-68
2022/03/02 08:41:52;;;;;;;57.95;39.28;;;;;;;4.61;44.05;101095.06;5024349;28;20500;-68
2022/03/02 08:44:20;;;;;;;49.20;26.83;;;;;;;4.60;43.81;101088.09;5024076;28;20094;-68
2022/03/02 08:46:47;;;;;;;51.17;33.40;;;;;;;4.65;43.43;101093.19;5021687;28;20056;-68
2022/03/02 08:49:15;;;;;;;53.38;30.58;;;;;;;4.70;43.42;101097.34;5023238;28;20052;-71
2022/03/02 08:51:42;;;;;;;48.28;26.40;;;;;;;4.86;43.49;101094.19;5024971;28;20041;-71
2022/03/02 08:54:13;;;;;;;58.88;27.92;;;;;;;5.10;43.39;101100.31;5024181;28;20045;-73
2022/03/02 08:56:41;;;;;;;46.25;24.90;;;;;;;5.32;43.15;101088.13;5024117;28;20041;-74
2022/03/02 08:59:14;;;;;;;33.13;19.85;;;;;;;5.58;43.33;101085.44;5022004;28;20053;-68
2022/03/02 09:01:45;;;;;;;34.17;17.85;;;;;;;5.79;42.66;101082.00;5024692;28;20513;-75
2022/03/02 09:04:16;;;;;;;34.30;17.70;;;;;;;5.87;41.61;101079.94;5023935;28;20051;-70
2022/03/02 09:06:45;;;;;;;30.00;17.15;;;;;;;6.04;40.70;101070.56;5024008;28;20041;-73
2022/03/02 09:09:13;;;;;;;27.88;15.82;;;;;;;6.37;40.74;101062.22;5023284;28;20050;-76
2022/03/02 09:11:44;;;;;;;25.40;13.65;;;;;;;6.92;40.32;101065.09;5024550;28;20083;-76
2022/03/02 09:14:11;;;;;;;39.70;23.77;;;;;;;6.75;38.37;101060.56;5026103;28;20051;-69
2022/03/02 09:16:39;;;;;;;38.55;22.77;;;;;;;6.61;38.31;101063.81;5022644;28;20089;-71
2022/03/02 09:19:07;;;;;;;33.72;19.67;;;;;;;6.78;38.55;101057.81;5026065;28;20076;-73
2022/03/02 09:21:36;;;;;;;32.22;20.15;;;;;;;6.75;37.63;101054.47;5024357;28;20057;-71
2022/03/02 09:24:05;;;;;;;28.35;18.73;;;;;;;6.63;37.12;101058.50;5023613;28;20459;-71
2022/03/02 09:26:34;;;;;;;27.85;17.80;;;;;;;6.64;36.79;101053.16;5024362;28;20072;-73
2022/03/02 09:29:04;;;;;;;32.45;19.83;;;;;;;6.68;36.82;101049.50;5024014;28;20045;-68
2022/03/02 09:31:34;;;;;;;25.13;15.73;;;;;;;6.92;37.04;101044.06;5024226;28;20704;-68
2022/03/02 09:34:05;;;;;;;25.63;15.10;;;;;;;7.08;36.62;101047.72;5024495;28;20045;-71
2022/03/02 09:36:36;;;;;;;22.25;14.07;;;;;;;7.39;36.53;101038.44;5026287;28;20101;-73
2022/03/02 09:39:05;;;;;;;22.10;14.90;;;;;;;7.22;35.55;101038.34;5025499;28;20131;-67
2022/03/02 09:41:43;;;;;;;31.10;20.23;;;;;;;7.06;35.66;101032.97;5025481;28;20136;-75
2022/03/02 09:44:14;;;;;;;22.58;13.77;;;;;;;7.16;35.55;101025.50;5022937;28;20045;-70
2022/03/02 09:46:42;;;;;;;18.02;14.40;;;;;;;7.25;35.45;101028.53;5023343;28;20100;-72
2022/03/02 09:49:11;;;;;;;23.85;15.55;;;;;;;7.05;35.00;101029.47;5025924;28;20057;-70
2022/03/02 09:51:39;;;;;;;23.02;12.77;;;;;;;7.05;35.22;101018.94;5027409;28;20049;-69
2022/03/02 09:54:08;;;;;;;19.42;12.80;;;;;;;7.15;35.27;101015.91;5031387;28;20081;-70
2022/03/02 09:56:37;;;;;;;19.35;13.88;;;;;;;7.03;34.79;101018.19;5031548;28;20053;-69
2022/03/02 09:59:06;;;;;;;24.25;12.75;;;;;;;7.15;34.90;101015.91;5026756;28;20067;-69
2022/03/02 10:01:36;;;;;;;29.67;20.17;;;;;;;7.13;34.79;101012.50;5028180;28;20102;-72
2022/03/02 10:04:17;;;;;;;28.65;16.50;;;;;;;7.14;35.01;101016.84;5026067;28;20077;-68
2022/03/02 10:06:45;;;;;;;21.40;12.10;;;;;;;7.09;34.16;101009.16;5028795;28;20067;-69
2022/03/02 10:09:13;;;;;;;21.40;12.25;;;;;;;7.04;34.27;101006.75;5026281;28;20048;-67
2022/03/02 10:11:45;;;;;;;20.17;10.68;;;;;;;7.25;34.46;101010.16;5027006;28;20132;-69
2022/03/02 10:14:12;;;;;;;17.83;11.23;;;;;;;7.31;34.28;101001.16;5026075;28;20125;-73
2022/03/02 10:16:45;;;;;;;16.48;10.32;;;;;;;7.47;34.41;100994.25;5025992;28;20060;-68
2022/03/02 10:19:23;;;;;;;18.60;9.65;;;;;;;7.94;34.49;100992.88;5027168;28;20136;-77
2022/03/02 10:22:04;;;;;;;30.67;9.13;;;;;;;8.30;34.21;100989.31;5028068;28;20056;-68
2022/03/02 10:24:33;;;;;;;16.48;9.80;;;;;;;8.49;34.01;100997.13;5027959;28;20099;-69
2022/03/02 10:27:06;;;;;;;20.40;10.80;;;;;;;8.52;34.10;100982.97;5027518;28;20050;-71
2022/03/02 10:29:46;;;;;;;18.45;14.25;;;;;;;8.28;32.82;100983.25;5025970;28;20132;-70
2022/03/02 10:32:16;;;;;;;18.80;12.82;;;;;;;8.13;33.00;100989.31;5027481;28;20045;-72
2022/03/02 10:34:50;;;;;;;17.58;10.82;;;;;;;8.21;33.43;100977.47;5029891;28;20049;-75
2022/03/02 10:37:35;;;;;;;16.77;10.90;;;;;;;8.39;33.53;100969.53;5028206;28;20106;-67
2022/03/02 10:40:09;;;;;;;17.13;9.07;;;;;;;8.59;33.27;100972.03;5028432;28;20230;-72
2022/03/02 10:42:40;;;;;;;14.85;9.68;;;;;;;8.75;33.44;100965.91;5029580;28;20323;-71
2022/03/02 10:45:14;;;;;;;17.60;8.63;;;;;;;8.82;33.11;100969.09;5025994;28;20091;-69
2022/03/02 10:47:47;;;;;;;14.73;8.23;;;;;;;8.83;33.07;100966.38;5026689;28;20076;-73
2022/03/02 10:50:14;;;;;;;12.27;8.48;;;;;;;8.90;33.10;100956.38;5025599;28;20053;-72
2022/03/02 10:52:42;;;;;;;16.77;8.45;;;;;;;8.99;33.04;100955.88;5026817;28;20105;-70
2022/03/02 10:55:13;;;;;;;16.73;10.55;;;;;;;8.90;32.18;100945.84;5026100;28;20050;-69
2022/03/02 10:57:47;;;;;;;18.73;10.52;;;;;;;8.81;32.53;100941.91;5025991;28;20049;-67
2022/03/02 11:00:17;;;;;;;16.75;10.05;;;;;;;8.63;32.29;100940.28;5025219;28;20657;-68
2022/03/02 11:02:46;;;;;;;14.13;7.47;;;;;;;8.80;32.42;100930.53;5029326;28;20057;-70
2022/03/02 11:05:14;;;;;;;11.82;7.80;;;;;;;8.95;32.26;100935.91;5027654;28;20129;-69
2022/03/02 11:07:42;;;;;;;15.68;8.70;;;;;;;8.92;32.28;100931.63;5028056;28;20305;-69
2022/03/02 11:10:12;;;;;;;15.57;8.63;;;;;;;8.85;32.38;100925.00;5026586;28;20136;-78